Historyczne dane pomiarowe

Dodano dane terminowe – wersja testowa.

Dane z okresu 1951-2019

Wersja bazy: 1.34 [2019-03-16, lista zmian], aktualizacja planowana na 2019-04-15

Dane meteo z obszaru Polski uzyskane na podstawie danych udostępnionych przez Instytut Meteorologii i Gospodarki Wodnej – Państwowy Instytut Badawczy.

 

Wybierz Datę:    

       

TemperaturaWilgotnośćWiatrCiśnienieOpadyŚniegCzas trwania zjawisk
 Stacja t tx tn tng RH VA  wxwx mslp ppp RRR   cm mm wxwxwxwxwxwxwx
1994-08-14 14.4 17.8 9.7 7.7 62.8- 3.0 2.7---- 0.0------------
1994-08-13 16.9 19.8 14.5 13.2 77.5- 6.3 2.7---- 0.8------------
1994-08-12 15.4 20.3 12.0 10.4 96.5- 7.0 1.7---- 8.1------------
1994-08-11 19.9 23.2 16.9 15.3 82.3- 4.3 1.7---- 0.0------------
1994-08-10 19.1 27.8 10.4 8.7 77.5- 4.0 1.3---- 7.2------------
1994-08-09 18.1 20.2 16.9 14.9 89.8- 5.0 1.0---- 13.6------------
1994-08-08 18.7 23.7 15.8 14.0 93.3- 7.0 3.0---- 28.3------------
1994-08-07 19.8 27.6 13.2 12.3 93.8- 6.0 1.7---- 14.9------------
1994-08-06 23.7 32.4 13.6 12.3 59.0- 3.3 1.3---- 0.0------------
1994-08-05 21.5 32.0 9.4 7.7 57.3- 1.0 1.3---- 0.0------------
1994-08-04 21.6 28.4 10.8 8.7 58.5- 1.3 1.3---- 0.0------------
1994-08-03 21.5 27.2 16.7 15.3 76.8- 0.3 1.3---- 0.1------------
1994-08-02 23.5 31.8 13.4 12.1 69.8- 3.3 2.0---- 0.3------------
1994-08-01 25.9 34.2 14.2 12.1 52.5- 1.0 4.0---- 0.0------------
1994-07-31 23.9 33.9 12.8 11.9 61.0- 0.7 2.0---- 0.0------------
1994-07-30 23.0 34.5 12.8 12.2 64.8- 1.7 1.3---- 0.0------------
1994-07-29 22.3 33.7 11.4 9.9 63.0- 2.7 1.7---- 0.0------------
1994-07-28 23.3 31.4 10.5 10.0 55.0- 1.7 1.0---- 0.0------------
1994-07-27 22.1 31.9 12.1 10.7 57.8- 0.3 1.3---- 0.0------------
1994-07-26 23.4 31.7 11.7 10.5 58.5- 0.3 1.3---- 0.0------------
1994-07-25 20.1 30.9 10.5 8.4 54.3- 0.3 1.0---- 0.0------------
1994-07-24 20.3 28.9 9.0 7.4 58.8- 0.7 1.3---- 0.0------------
1994-07-23 20.0 28.6 9.3 7.8 59.3- 0.0 1.7---- 0.0------------
1994-07-22 20.3 28.5 9.0 7.0 59.0- 0.0 1.3---- 0.0------------
1994-07-21 18.3 25.8 7.2 5.7 65.5- 0.3 1.3---- 0.0------------
1994-07-20 18.8 22.6 15.1 13.4 55.0- 6.7 3.3---- 0.0------------
1994-07-19 17.0 21.3 15.0 14.3 83.5- 5.7 1.7---- 1.6------------
1994-07-18 18.7 24.0 14.0 13.4 87.8- 7.7 3.3---- 0.1------------
1994-07-17 19.6 26.6 13.4 12.2 97.8- 4.7 3.3---- 23.8------------
1994-07-16 21.0 25.2 13.6 12.5 83.5- 2.3 1.0---- 0.2------------
1994-07-15 20.2 27.7 12.4 11.2 77.5- 2.3 2.7---- 0.0------------
1994-07-14 21.5 28.2 11.6 10.5 68.8- 2.7 1.3---- 0.0------------
1994-07-13 20.4 25.6 13.1 12.0 67.5- 0.3 1.3---- 0.0------------
1994-07-12 20.1 24.6 14.8 13.9 78.3- 2.3 1.3---- 0.0------------
1994-07-11 18.2 25.2 10.8 9.0 69.0- 6.0 7.3---- 0.0------------
1994-07-10 15.2 19.4 13.1 12.2 90.0- 4.7 3.0---- 2.7------------
1994-07-09 15.0 17.4 10.0 8.9 89.5- 8.0 1.3---- 16.2------------
1994-07-08 14.4 18.5 10.8 9.4 70.3- 2.7 2.0---- 0.6------------
1994-07-07 15.3 21.0 10.0 8.9 96.8- 4.0 1.3---- 10.8------------
1994-07-06 18.0 22.4 11.8 11.1 78.8- 2.0 1.7---- 0.0------------
1994-07-05 20.1 25.9 13.4 12.3 85.0- 4.7 1.0---- 8.9------------
1994-07-04 20.9 29.6 9.1 7.6 53.5- 1.7 2.7---- 0.0------------
1994-07-03 20.2 27.0 8.1 7.0 58.5- 0.3 0.7---- 0.0------------
1994-07-02 17.6 24.4 5.9 4.6 65.0- 0.0 2.7---- 0.0------------
1994-07-01 16.3 21.8 9.0 8.1 72.8- 2.0 1.3---- 0.0------------
1994-06-30 18.2 25.1 16.8 15.4 99.5- 6.3 1.0---- 2.1------------
1994-06-29 24.5 32.2 15.2 14.3 69.5- 2.7 1.3---- 0.0------------
1994-06-28 25.1 29.8 16.2 15.1 77.0- 3.7 0.7---- 0.0------------
1994-06-27 24.5 31.2 17.2 15.8 77.0- 4.7 3.0---- 0.2------------
1994-06-26 22.5 28.6 14.4 13.3 52.3- 1.3 7.7---- 0.0------------
1994-06-25 16.3 25.2 2.7 1.6 55.5- 0.0 3.0---- 0.0------------
1994-06-24 12.9 21.0 2.7 1.6 63.5- 1.0 2.3---- 0.0------------
1994-06-23 17.2 23.3 13.8 12.4 57.0- 2.0 2.3---- 0.0------------
1994-06-22 18.1 24.3 9.8 8.3 74.0- 3.7 2.0---- 0.0------------
1994-06-21 14.5 22.0 4.5 3.5 73.0- 2.7 1.3---- 0.0------------
1994-06-20 14.6 22.7 7.7 6.5 75.0- 4.0 3.7---- 0.0------------
1994-06-19 18.9 25.4 11.6 10.3 59.8- 3.3 1.7---- 0.0------------
1994-06-18 12.6 19.2 2.2 1.0 76.3- 3.3 2.0---- 0.7------------
1994-06-17 10.1 14.2 7.7 6.5 71.8- 2.0 1.3---- 0.0------------
1994-06-16 10.7 16.1 6.4 4.6 81.0- 7.3 4.0---- 3.1------------
226.2 ms

 

Źródłem pochodzenia danych jest Instytut Meteorologii i Gospodarki Wodnej – Państwowy Instytut Badawczy. Dane Instytutu Meteorologii i Gospodarki Wodnej – Państwowego Instytutu Badawczego zostały przetworzone.

Dane źródłowe można odnaleźć na stronie https://dane.imgw.pl